Armington, Montana
Current Conditions -  °F | °C
As of 12:56 PM on Tuesday 25 Nov 2014 (Local Time) from KGFA Reporting Station
Broken Clouds Broken Clouds  
Wind Chill: 27°   Ceiling: 3500
Heat Index: 34°   Visibility: 10mi
Dew Point: 24°   Wind: 9mph
Humidity: 68%   Direction: 350°N
Pressure: 30.05"   Gusts: NA
Location:  47.3298°N, 110.893°W
Report Text: KGFA 251956Z AUTO 35008KT 10SM BKN035 01/M04 A3005 RMK AO2 SLP203 T00121042
Loading
Personal Weather Stations






























Interactive Weather Map New forecast layout! Learn more

10-Day Weather Forecast

Advertisements
Track Severe Weather on mobile